1FL5 weather

West Bay Creek Seaplane Base
West Bay, Florida, United States

Public forecast

Using degrees Fahrenheit for public forecast. Weather courtesy of forecast.io.

METAR (pilot weather report)

Closest report is Northwest Florida Beaches International Airport, 4.9 nm (9.0 km) NE. Retrieved 2018/04/21 04:53 UTC (9 minutes ago):

KECP 210453Z AUTO 02006KT 10SM CLR 15/09 A3018 RMK AO2 SLP231 T01500094

TAF (pilot weather forecast)

Forecast is more than 12 hours old.

Closest forecast is Northwest Florida Beaches International Airport, 4.9 nm (9.0 km) NE. Retrieved 2018/04/20 00:30 UTC (1 day ago):

TAF KECP 202328Z 2100/2124 06007KT P6SM FEW050 SCT250 FM210300 03006KT P6SM BKN040 FM211200 05008KT P6SM BKN020 FM211800 07010G15KT P6SM BKN035